首页
METAR-TAF:

METAR-TAF

机场 :

臺灣桃園國際機場

臺北, 台湾

纬度: 25-05N, 经度: 121-13E, 海拔: 33米

当前天气观测

该预报发布于33分钟前的04:00 UTC
风速9节,风向北转东北
温度 14°C
湿度 88%
气压 1022 hPa
能見度: 6000
少量云层高于800英尺
多云层高于1200英尺
多云层高于2000英尺

METAR: RCTP 190400Z 03009KT 6000 FEW008 BKN012 BKN020 14/12 Q1022 NOSIG RMK A3020

时间: 12:33 (04:33 UTC)

预报

该预报发布于5小时和33分钟前的23:00 UTC
预报有效从19日的 00点(UTC)到 20日的 06点(UTC)
风速10节,风向北转东北
能见度10公里或以上
少量云层高于1000英尺
多云层高于1800英尺
多云层高于4000英尺
短暂存在
从 19日的 00点(UTC)到 19日的 06点(UTC)
少量云层高于800英尺
多云层高于1300英尺
多云层高于3000英尺
成为
从 19日的 11点(UTC)到 19日的 13点(UTC)
风速10节,风向东转东北
少量云层高于1200英尺
多云层高于3200英尺
短暂存在
从 19日的 16点(UTC)到 19日的 22点(UTC)
少量云层高于1000英尺
多云层高于1800英尺
多云层高于4000英尺
短暂存在
从 20日的 00点(UTC)到 20日的 06点(UTC)
风速15节,风向东北

TAF: RCTP 182300Z 1900/2006 03010KT 9999 FEW010 BKN018 BKN040 TEMPO 1900/1906 FEW008 BKN013 BKN030 BECMG 1911/1913 06010KT FEW012 BKN032 TEMPO 1916/1922 FEW010 BKN018 BKN040 TEMPO 2000/2006 04015KT

超过4000个机场的气象观测和天气预报(METAR&TAF报告)。

可查询的气象台以黄色和红色小点在地图上表示。

将鼠标移到小点上方,可查看气象台名称。

然后点击查看天气观测和预报。

如需切换地图:点击带黑十字的绿色按钮放大地图;点击带横线的绿色按钮缩小地图;或者点击绿色箭头查看邻近地区的地图。


METAR-TAF: